sensor_id;sensor_type;location;lat;lon;timestamp;temperature;humidity
81212;DHT22;70686;52.494;13.420;2023-09-08T00:02:03;21.10;61.10
81212;DHT22;70686;52.494;13.420;2023-09-08T00:04:29;21.00;61.20
81212;DHT22;70686;52.494;13.420;2023-09-08T00:06:54;21.10;61.10
81212;DHT22;70686;52.494;13.420;2023-09-08T00:09:20;21.00;61.20
81212;DHT22;70686;52.494;13.420;2023-09-08T00:11:45;21.00;61.30
81212;DHT22;70686;52.494;13.420;2023-09-08T00:14:11;20.90;61.50
81212;DHT22;70686;52.494;13.420;2023-09-08T00:16:37;20.90;61.50
81212;DHT22;70686;52.494;13.420;2023-09-08T00:19:04;20.90;61.60
81212;DHT22;70686;52.494;13.420;2023-09-08T00:21:30;20.90;61.60
81212;DHT22;70686;52.494;13.420;2023-09-08T00:23:56;21.00;61.40
81212;DHT22;70686;52.494;13.420;2023-09-08T00:26:22;20.90;61.50
81212;DHT22;70686;52.494;13.420;2023-09-08T00:28:48;20.90;61.50
81212;DHT22;70686;52.494;13.420;2023-09-08T00:31:14;20.80;61.70
81212;DHT22;70686;52.494;13.420;2023-09-08T00:33:39;20.80;62.00
81212;DHT22;70686;52.494;13.420;2023-09-08T00:36:07;20.70;62.00
81212;DHT22;70686;52.494;13.420;2023-09-08T00:38:33;20.70;62.00
81212;DHT22;70686;52.494;13.420;2023-09-08T00:40:59;20.70;62.00
81212;DHT22;70686;52.494;13.420;2023-09-08T00:43:26;20.70;63.20
81212;DHT22;70686;52.494;13.420;2023-09-08T00:45:52;20.60;62.30
81212;DHT22;70686;52.494;13.420;2023-09-08T00:48:19;20.70;62.20
81212;DHT22;70686;52.494;13.420;2023-09-08T00:50:45;20.60;62.20
81212;DHT22;70686;52.494;13.420;2023-09-08T00:53:11;20.60;62.30
81212;DHT22;70686;52.494;13.420;2023-09-08T00:55:38;20.60;62.40
81212;DHT22;70686;52.494;13.420;2023-09-08T00:58:04;20.60;62.50
81212;DHT22;70686;52.494;13.420;2023-09-08T01:00:30;20.60;62.70
81212;DHT22;70686;52.494;13.420;2023-09-08T01:02:58;20.60;62.70
81212;DHT22;70686;52.494;13.420;2023-09-08T01:05:23;20.50;62.80
81212;DHT22;70686;52.494;13.420;2023-09-08T01:07:51;20.50;62.80
81212;DHT22;70686;52.494;13.420;2023-09-08T01:10:17;20.50;62.90
81212;DHT22;70686;52.494;13.420;2023-09-08T01:12:43;20.50;62.80
81212;DHT22;70686;52.494;13.420;2023-09-08T01:15:09;20.50;62.90
81212;DHT22;70686;52.494;13.420;2023-09-08T01:17:34;20.40;63.00
81212;DHT22;70686;52.494;13.420;2023-09-08T01:20:09;20.40;63.00
81212;DHT22;70686;52.494;13.420;2023-09-08T01:25:29;20.40;63.10
81212;DHT22;70686;52.494;13.420;2023-09-08T01:27:57;20.40;63.10
81212;DHT22;70686;52.494;13.420;2023-09-08T01:30:26;20.40;63.00
81212;DHT22;70686;52.494;13.420;2023-09-08T01:32:53;20.30;63.20
81212;DHT22;70686;52.494;13.420;2023-09-08T01:35:19;20.30;63.40
81212;DHT22;70686;52.494;13.420;2023-09-08T01:37:47;20.30;63.30
81212;DHT22;70686;52.494;13.420;2023-09-08T01:40:13;20.30;63.40
81212;DHT22;70686;52.494;13.420;2023-09-08T01:42:39;20.30;63.30
81212;DHT22;70686;52.494;13.420;2023-09-08T01:45:05;20.30;63.50
81212;DHT22;70686;52.494;13.420;2023-09-08T01:47:31;20.20;63.60
81212;DHT22;70686;52.494;13.420;2023-09-08T01:49:58;20.20;63.60
81212;DHT22;70686;52.494;13.420;2023-09-08T01:52:24;20.20;63.90
81212;DHT22;70686;52.494;13.420;2023-09-08T01:54:50;20.20;63.90
81212;DHT22;70686;52.494;13.420;2023-09-08T01:57:15;20.10;63.90
81212;DHT22;70686;52.494;13.420;2023-09-08T01:59:41;20.10;64.00
81212;DHT22;70686;52.494;13.420;2023-09-08T02:02:07;20.10;64.10
81212;DHT22;70686;52.494;13.420;2023-09-08T02:04:32;20.00;64.30
81212;DHT22;70686;52.494;13.420;2023-09-08T02:06:58;20.00;64.30
81212;DHT22;70686;52.494;13.420;2023-09-08T02:09:35;19.90;64.50
81212;DHT22;70686;52.494;13.420;2023-09-08T02:12:02;20.00;64.50
81212;DHT22;70686;52.494;13.420;2023-09-08T02:14:28;19.90;64.50
81212;DHT22;70686;52.494;13.420;2023-09-08T02:16:54;19.90;64.50
81212;DHT22;70686;52.494;13.420;2023-09-08T02:19:20;19.90;64.50
81212;DHT22;70686;52.494;13.420;2023-09-08T02:21:46;19.90;64.50
81212;DHT22;70686;52.494;13.420;2023-09-08T02:24:12;19.80;64.50
81212;DHT22;70686;52.494;13.420;2023-09-08T02:26:41;19.90;64.70
81212;DHT22;70686;52.494;13.420;2023-09-08T02:29:06;19.80;64.90
81212;DHT22;70686;52.494;13.420;2023-09-08T02:31:33;19.70;65.10
81212;DHT22;70686;52.494;13.420;2023-09-08T02:33:59;19.70;65.20
81212;DHT22;70686;52.494;13.420;2023-09-08T02:36:25;19.70;65.30
81212;DHT22;70686;52.494;13.420;2023-09-08T02:38:55;19.60;65.40
81212;DHT22;70686;52.494;13.420;2023-09-08T02:41:21;19.60;65.40
81212;DHT22;70686;52.494;13.420;2023-09-08T02:43:47;19.60;65.30
81212;DHT22;70686;52.494;13.420;2023-09-08T02:46:13;19.60;65.50
81212;DHT22;70686;52.494;13.420;2023-09-08T02:48:39;19.60;65.40
81212;DHT22;70686;52.494;13.420;2023-09-08T02:51:05;19.70;65.40
81212;DHT22;70686;52.494;13.420;2023-09-08T02:53:31;19.70;65.30
81212;DHT22;70686;52.494;13.420;2023-09-08T02:56:20;19.60;65.40
81212;DHT22;70686;52.494;13.420;2023-09-08T02:58:57;19.60;65.60
81212;DHT22;70686;52.494;13.420;2023-09-08T03:04:12;19.50;66.10
81212;DHT22;70686;52.494;13.420;2023-09-08T03:06:38;19.40;66.20
81212;DHT22;70686;52.494;13.420;2023-09-08T03:09:04;19.40;66.40
81212;DHT22;70686;52.494;13.420;2023-09-08T03:11:29;19.40;66.30
81212;DHT22;70686;52.494;13.420;2023-09-08T03:13:55;19.40;66.20
81212;DHT22;70686;52.494;13.420;2023-09-08T03:16:21;19.40;66.20
81212;DHT22;70686;52.494;13.420;2023-09-08T03:18:50;19.40;66.30
81212;DHT22;70686;52.494;13.420;2023-09-08T03:21:16;19.30;66.50
81212;DHT22;70686;52.494;13.420;2023-09-08T03:23:44;19.30;66.60
81212;DHT22;70686;52.494;13.420;2023-09-08T03:26:10;19.30;66.50
81212;DHT22;70686;52.494;13.420;2023-09-08T03:28:37;19.30;66.50
81212;DHT22;70686;52.494;13.420;2023-09-08T03:31:04;19.30;66.40
81212;DHT22;70686;52.494;13.420;2023-09-08T03:33:30;19.20;66.40
81212;DHT22;70686;52.494;13.420;2023-09-08T03:35:56;19.20;66.80
81212;DHT22;70686;52.494;13.420;2023-09-08T03:38:22;19.20;66.60
81212;DHT22;70686;52.494;13.420;2023-09-08T03:40:48;19.10;66.80
81212;DHT22;70686;52.494;13.420;2023-09-08T03:43:14;19.10;66.90
81212;DHT22;70686;52.494;13.420;2023-09-08T03:45:40;19.00;67.30
81212;DHT22;70686;52.494;13.420;2023-09-08T03:48:06;19.00;67.60
81212;DHT22;70686;52.494;13.420;2023-09-08T03:50:32;19.00;67.40
81212;DHT22;70686;52.494;13.420;2023-09-08T03:52:58;19.00;67.50
81212;DHT22;70686;52.494;13.420;2023-09-08T03:55:24;19.00;67.50
81212;DHT22;70686;52.494;13.420;2023-09-08T03:57:50;19.00;67.30
81212;DHT22;70686;52.494;13.420;2023-09-08T04:00:16;19.00;67.50
81212;DHT22;70686;52.494;13.420;2023-09-08T04:02:47;18.90;67.50
81212;DHT22;70686;52.494;13.420;2023-09-08T04:12:02;18.80;68.20
81212;DHT22;70686;52.494;13.420;2023-09-08T04:14:46;18.80;68.20
81212;DHT22;70686;52.494;13.420;2023-09-08T04:27:09;18.70;69.00
81212;DHT22;70686;52.494;13.420;2023-09-08T04:30:11;18.70;69.00
81212;DHT22;70686;52.494;13.420;2023-09-08T04:36:34;18.70;69.30
81212;DHT22;70686;52.494;13.420;2023-09-08T04:43:36;18.60;69.40
81212;DHT22;70686;52.494;13.420;2023-09-08T04:49:09;18.60;70.00
81212;DHT22;70686;52.494;13.420;2023-09-08T04:51:41;18.60;69.80
81212;DHT22;70686;52.494;13.420;2023-09-08T04:54:07;18.60;69.60
81212;DHT22;70686;52.494;13.420;2023-09-08T04:56:32;18.60;69.40
81212;DHT22;70686;52.494;13.420;2023-09-08T04:59:01;18.60;69.40
81212;DHT22;70686;52.494;13.420;2023-09-08T05:01:27;18.60;69.30
81212;DHT22;70686;52.494;13.420;2023-09-08T05:04:14;18.70;69.40
81212;DHT22;70686;52.494;13.420;2023-09-08T05:06:40;18.80;69.10
81212;DHT22;70686;52.494;13.420;2023-09-08T05:09:05;18.70;69.00
81212;DHT22;70686;52.494;13.420;2023-09-08T05:11:32;18.70;68.90
81212;DHT22;70686;52.494;13.420;2023-09-08T05:13:57;18.80;68.90
81212;DHT22;70686;52.494;13.420;2023-09-08T05:16:29;18.80;68.70
81212;DHT22;70686;52.494;13.420;2023-09-08T05:19:10;18.90;68.90
81212;DHT22;70686;52.494;13.420;2023-09-08T05:21:36;18.90;68.80
81212;DHT22;70686;52.494;13.420;2023-09-08T05:24:03;18.90;68.60
81212;DHT22;70686;52.494;13.420;2023-09-08T05:26:28;18.90;68.70
81212;DHT22;70686;52.494;13.420;2023-09-08T05:28:54;19.10;68.30
81212;DHT22;70686;52.494;13.420;2023-09-08T05:31:23;19.10;68.00
81212;DHT22;70686;52.494;13.420;2023-09-08T05:34:17;19.20;67.90
81212;DHT22;70686;52.494;13.420;2023-09-08T05:37:04;19.20;67.70
81212;DHT22;70686;52.494;13.420;2023-09-08T05:39:45;19.20;67.70
81212;DHT22;70686;52.494;13.420;2023-09-08T05:42:54;19.20;67.40
81212;DHT22;70686;52.494;13.420;2023-09-08T05:52:43;19.50;66.30
81212;DHT22;70686;52.494;13.420;2023-09-08T05:55:09;19.50;66.40
81212;DHT22;70686;52.494;13.420;2023-09-08T05:57:35;19.60;66.10
81212;DHT22;70686;52.494;13.420;2023-09-08T06:00:03;19.70;65.70
81212;DHT22;70686;52.494;13.420;2023-09-08T06:02:28;19.70;65.90
81212;DHT22;70686;52.494;13.420;2023-09-08T06:04:54;19.80;65.70
81212;DHT22;70686;52.494;13.420;2023-09-08T06:07:21;19.80;65.50
81212;DHT22;70686;52.494;13.420;2023-09-08T06:09:47;19.80;65.60
81212;DHT22;70686;52.494;13.420;2023-09-08T06:12:13;19.90;65.10
81212;DHT22;70686;52.494;13.420;2023-09-08T06:14:39;19.90;65.10
81212;DHT22;70686;52.494;13.420;2023-09-08T06:17:04;19.90;65.30
81212;DHT22;70686;52.494;13.420;2023-09-08T06:19:30;20.00;65.00
81212;DHT22;70686;52.494;13.420;2023-09-08T06:21:56;20.00;65.10
81212;DHT22;70686;52.494;13.420;2023-09-08T06:24:22;20.10;64.80
81212;DHT22;70686;52.494;13.420;2023-09-08T06:26:48;20.20;64.40
81212;DHT22;70686;52.494;13.420;2023-09-08T06:29:15;20.20;64.40
81212;DHT22;70686;52.494;13.420;2023-09-08T06:31:41;20.30;64.30
81212;DHT22;70686;52.494;13.420;2023-09-08T06:34:06;20.40;64.10
81212;DHT22;70686;52.494;13.420;2023-09-08T06:36:32;20.40;64.00
81212;DHT22;70686;52.494;13.420;2023-09-08T06:38:58;20.40;64.90
81212;DHT22;70686;52.494;13.420;2023-09-08T06:41:24;20.60;63.50
81212;DHT22;70686;52.494;13.420;2023-09-08T06:43:55;20.60;63.30
81212;DHT22;70686;52.494;13.420;2023-09-08T06:46:21;20.70;63.40
81212;DHT22;70686;52.494;13.420;2023-09-08T06:48:47;20.80;62.90
81212;DHT22;70686;52.494;13.420;2023-09-08T06:51:12;20.90;62.80
81212;DHT22;70686;52.494;13.420;2023-09-08T06:53:38;21.00;62.60
81212;DHT22;70686;52.494;13.420;2023-09-08T06:56:04;21.00;62.60
81212;DHT22;70686;52.494;13.420;2023-09-08T06:58:30;21.10;62.10
81212;DHT22;70686;52.494;13.420;2023-09-08T07:00:56;21.20;62.00
81212;DHT22;70686;52.494;13.420;2023-09-08T07:03:22;21.30;61.80
81212;DHT22;70686;52.494;13.420;2023-09-08T07:05:49;21.50;61.30
81212;DHT22;70686;52.494;13.420;2023-09-08T07:08:15;21.60;61.10
81212;DHT22;70686;52.494;13.420;2023-09-08T07:10:43;21.70;60.80
81212;DHT22;70686;52.494;13.420;2023-09-08T07:13:09;21.80;60.80
81212;DHT22;70686;52.494;13.420;2023-09-08T07:15:36;21.90;60.70
81212;DHT22;70686;52.494;13.420;2023-09-08T07:18:02;22.00;60.10
81212;DHT22;70686;52.494;13.420;2023-09-08T07:20:28;22.10;59.80
81212;DHT22;70686;52.494;13.420;2023-09-08T07:22:54;22.30;60.50
81212;DHT22;70686;52.494;13.420;2023-09-08T07:25:19;22.40;58.90
81212;DHT22;70686;52.494;13.420;2023-09-08T07:27:45;22.40;58.80
81212;DHT22;70686;52.494;13.420;2023-09-08T07:30:12;22.50;58.30
81212;DHT22;70686;52.494;13.420;2023-09-08T07:32:38;22.60;57.90
81212;DHT22;70686;52.494;13.420;2023-09-08T07:35:05;22.60;57.70
81212;DHT22;70686;52.494;13.420;2023-09-08T07:37:31;22.70;57.60
81212;DHT22;70686;52.494;13.420;2023-09-08T07:39:57;22.90;57.10
81212;DHT22;70686;52.494;13.420;2023-09-08T07:42:23;23.00;57.00
81212;DHT22;70686;52.494;13.420;2023-09-08T07:44:51;23.30;56.20
81212;DHT22;70686;52.494;13.420;2023-09-08T07:47:17;23.70;55.30
81212;DHT22;70686;52.494;13.420;2023-09-08T07:49:48;23.90;54.70
81212;DHT22;70686;52.494;13.420;2023-09-08T07:52:26;24.10;54.40
81212;DHT22;70686;52.494;13.420;2023-09-08T07:54:52;24.20;53.40
81212;DHT22;70686;52.494;13.420;2023-09-08T07:57:18;24.20;53.30
81212;DHT22;70686;52.494;13.420;2023-09-08T07:59:44;24.30;53.40
81212;DHT22;70686;52.494;13.420;2023-09-08T08:02:10;24.50;53.00
81212;DHT22;70686;52.494;13.420;2023-09-08T08:04:36;24.60;52.70
81212;DHT22;70686;52.494;13.420;2023-09-08T08:07:04;24.70;52.70
81212;DHT22;70686;52.494;13.420;2023-09-08T08:09:30;24.80;52.00
81212;DHT22;70686;52.494;13.420;2023-09-08T08:11:57;24.90;51.90
81212;DHT22;70686;52.494;13.420;2023-09-08T08:14:22;25.10;51.80
81212;DHT22;70686;52.494;13.420;2023-09-08T08:16:48;25.00;51.90
81212;DHT22;70686;52.494;13.420;2023-09-08T08:19:14;25.00;52.60
81212;DHT22;70686;52.494;13.420;2023-09-08T08:21:46;24.90;51.70
81212;DHT22;70686;52.494;13.420;2023-09-08T08:24:11;24.90;51.40
81212;DHT22;70686;52.494;13.420;2023-09-08T08:26:37;25.00;51.40
81212;DHT22;70686;52.494;13.420;2023-09-08T08:29:06;25.10;51.20
81212;DHT22;70686;52.494;13.420;2023-09-08T08:31:33;25.20;51.00
81212;DHT22;70686;52.494;13.420;2023-09-08T08:33:58;25.30;50.90
81212;DHT22;70686;52.494;13.420;2023-09-08T08:36:24;25.50;50.80
81212;DHT22;70686;52.494;13.420;2023-09-08T08:38:50;25.60;50.50
81212;DHT22;70686;52.494;13.420;2023-09-08T08:41:16;25.80;50.30
81212;DHT22;70686;52.494;13.420;2023-09-08T08:43:43;25.90;49.70
81212;DHT22;70686;52.494;13.420;2023-09-08T08:46:10;26.00;49.30
81212;DHT22;70686;52.494;13.420;2023-09-08T08:48:38;26.10;49.20
81212;DHT22;70686;52.494;13.420;2023-09-08T08:51:05;26.20;49.00
81212;DHT22;70686;52.494;13.420;2023-09-08T08:53:33;26.30;49.00
81212;DHT22;70686;52.494;13.420;2023-09-08T08:56:00;26.30;49.10
81212;DHT22;70686;52.494;13.420;2023-09-08T08:58:28;26.20;49.20
81212;DHT22;70686;52.494;13.420;2023-09-08T09:00:57;26.10;48.60
81212;DHT22;70686;52.494;13.420;2023-09-08T09:03:29;26.30;48.60
81212;DHT22;70686;52.494;13.420;2023-09-08T09:05:56;26.30;49.00
81212;DHT22;70686;52.494;13.420;2023-09-08T09:08:22;26.40;48.90
81212;DHT22;70686;52.494;13.420;2023-09-08T09:10:50;26.60;48.40
81212;DHT22;70686;52.494;13.420;2023-09-08T09:13:16;26.60;47.40
81212;DHT22;70686;52.494;13.420;2023-09-08T09:15:44;26.40;47.50
81212;DHT22;70686;52.494;13.420;2023-09-08T09:18:11;26.40;48.30
81212;DHT22;70686;52.494;13.420;2023-09-08T09:20:36;26.50;48.30
81212;DHT22;70686;52.494;13.420;2023-09-08T09:23:02;26.60;47.80
81212;DHT22;70686;52.494;13.420;2023-09-08T09:25:30;26.80;47.50
81212;DHT22;70686;52.494;13.420;2023-09-08T09:27:58;26.90;47.30
81212;DHT22;70686;52.494;13.420;2023-09-08T09:30:25;27.00;46.60
81212;DHT22;70686;52.494;13.420;2023-09-08T09:33:11;26.90;47.40
81212;DHT22;70686;52.494;13.420;2023-09-08T09:35:44;27.10;48.20
81212;DHT22;70686;52.494;13.420;2023-09-08T09:38:10;27.10;46.50
81212;DHT22;70686;52.494;13.420;2023-09-08T09:40:37;27.10;46.70
81212;DHT22;70686;52.494;13.420;2023-09-08T09:43:04;27.00;46.50
81212;DHT22;70686;52.494;13.420;2023-09-08T09:45:33;27.00;46.40
81212;DHT22;70686;52.494;13.420;2023-09-08T09:47:59;27.00;45.60
81212;DHT22;70686;52.494;13.420;2023-09-08T09:50:41;27.00;45.90
81212;DHT22;70686;52.494;13.420;2023-09-08T09:53:13;27.00;46.10
81212;DHT22;70686;52.494;13.420;2023-09-08T09:55:44;27.20;46.50
81212;DHT22;70686;52.494;13.420;2023-09-08T09:58:13;27.40;45.90
81212;DHT22;70686;52.494;13.420;2023-09-08T10:00:40;27.50;45.30
81212;DHT22;70686;52.494;13.420;2023-09-08T10:03:13;27.60;45.70
81212;DHT22;70686;52.494;13.420;2023-09-08T10:05:39;27.60;45.20
81212;DHT22;70686;52.494;13.420;2023-09-08T10:08:05;27.70;45.00
81212;DHT22;70686;52.494;13.420;2023-09-08T10:10:32;27.70;45.40
81212;DHT22;70686;52.494;13.420;2023-09-08T10:13:03;27.80;45.40
81212;DHT22;70686;52.494;13.420;2023-09-08T10:15:31;27.90;44.90
81212;DHT22;70686;52.494;13.420;2023-09-08T10:17:57;27.80;45.30
81212;DHT22;70686;52.494;13.420;2023-09-08T10:20:25;27.60;44.70
81212;DHT22;70686;52.494;13.420;2023-09-08T10:23:10;27.70;45.10
81212;DHT22;70686;52.494;13.420;2023-09-08T10:25:44;27.70;45.10
81212;DHT22;70686;52.494;13.420;2023-09-08T10:28:35;27.50;44.90
81212;DHT22;70686;52.494;13.420;2023-09-08T10:31:10;27.50;45.10
81212;DHT22;70686;52.494;13.420;2023-09-08T10:34:05;27.60;44.80
81212;DHT22;70686;52.494;13.420;2023-09-08T10:36:45;27.80;45.20
81212;DHT22;70686;52.494;13.420;2023-09-08T10:39:41;27.80;44.90
81212;DHT22;70686;52.494;13.420;2023-09-08T10:42:21;27.60;44.90
81212;DHT22;70686;52.494;13.420;2023-09-08T10:47:54;27.50;44.70
81212;DHT22;70686;52.494;13.420;2023-09-08T10:50:34;27.70;44.70
81212;DHT22;70686;52.494;13.420;2023-09-08T10:53:19;27.90;44.00
81212;DHT22;70686;52.494;13.420;2023-09-08T10:55:49;27.90;43.80
81212;DHT22;70686;52.494;13.420;2023-09-08T10:58:18;27.90;44.10
81212;DHT22;70686;52.494;13.420;2023-09-08T11:00:54;27.80;43.90
81212;DHT22;70686;52.494;13.420;2023-09-08T11:09:09;27.80;43.90
81212;DHT22;70686;52.494;13.420;2023-09-08T11:11:47;27.90;43.70
81212;DHT22;70686;52.494;13.420;2023-09-08T11:14:25;28.10;43.40
81212;DHT22;70686;52.494;13.420;2023-09-08T11:16:51;28.30;42.70
81212;DHT22;70686;52.494;13.420;2023-09-08T11:19:16;28.30;42.80
81212;DHT22;70686;52.494;13.420;2023-09-08T11:21:43;28.30;41.70
81212;DHT22;70686;52.494;13.420;2023-09-08T11:24:09;28.30;41.70
81212;DHT22;70686;52.494;13.420;2023-09-08T11:26:35;28.30;41.80
81212;DHT22;70686;52.494;13.420;2023-09-08T11:29:03;28.30;42.20
81212;DHT22;70686;52.494;13.420;2023-09-08T11:31:28;28.30;42.20
81212;DHT22;70686;52.494;13.420;2023-09-08T11:33:55;28.30;42.10
81212;DHT22;70686;52.494;13.420;2023-09-08T11:36:20;28.40;41.90
81212;DHT22;70686;52.494;13.420;2023-09-08T11:38:46;28.40;41.30
81212;DHT22;70686;52.494;13.420;2023-09-08T11:41:12;28.40;40.40
81212;DHT22;70686;52.494;13.420;2023-09-08T11:43:38;28.40;40.20
81212;DHT22;70686;52.494;13.420;2023-09-08T11:46:05;28.40;40.20
81212;DHT22;70686;52.494;13.420;2023-09-08T11:48:31;28.50;41.00
81212;DHT22;70686;52.494;13.420;2023-09-08T11:50:57;28.40;40.70
81212;DHT22;70686;52.494;13.420;2023-09-08T11:53:24;28.40;41.10
81212;DHT22;70686;52.494;13.420;2023-09-08T11:55:50;28.30;41.10
81212;DHT22;70686;52.494;13.420;2023-09-08T11:58:18;28.40;41.60
81212;DHT22;70686;52.494;13.420;2023-09-08T12:00:44;28.40;40.80
81212;DHT22;70686;52.494;13.420;2023-09-08T12:03:15;28.40;41.20
81212;DHT22;70686;52.494;13.420;2023-09-08T12:05:42;28.40;40.90
81212;DHT22;70686;52.494;13.420;2023-09-08T12:08:09;28.20;41.50
81212;DHT22;70686;52.494;13.420;2023-09-08T12:10:39;28.30;40.90
81212;DHT22;70686;52.494;13.420;2023-09-08T12:13:04;28.30;41.70
81212;DHT22;70686;52.494;13.420;2023-09-08T12:15:38;28.30;40.30
81212;DHT22;70686;52.494;13.420;2023-09-08T12:18:08;28.40;39.80
81212;DHT22;70686;52.494;13.420;2023-09-08T12:20:36;28.40;41.20
81212;DHT22;70686;52.494;13.420;2023-09-08T12:23:04;28.40;40.90
81212;DHT22;70686;52.494;13.420;2023-09-08T12:25:30;28.40;41.20
81212;DHT22;70686;52.494;13.420;2023-09-08T12:28:00;28.40;41.80
81212;DHT22;70686;52.494;13.420;2023-09-08T12:30:27;28.30;40.60
81212;DHT22;70686;52.494;13.420;2023-09-08T12:32:58;28.30;41.20
81212;DHT22;70686;52.494;13.420;2023-09-08T12:35:25;28.20;41.50
81212;DHT22;70686;52.494;13.420;2023-09-08T12:38:01;28.30;41.40
81212;DHT22;70686;52.494;13.420;2023-09-08T12:40:28;28.40;41.40
81212;DHT22;70686;52.494;13.420;2023-09-08T12:42:55;28.40;40.90
81212;DHT22;70686;52.494;13.420;2023-09-08T12:45:22;28.40;40.60
81212;DHT22;70686;52.494;13.420;2023-09-08T12:47:50;28.30;40.80
81212;DHT22;70686;52.494;13.420;2023-09-08T12:50:16;28.40;40.70
81212;DHT22;70686;52.494;13.420;2023-09-08T12:52:41;28.60;40.40
81212;DHT22;70686;52.494;13.420;2023-09-08T12:55:07;28.70;41.10
81212;DHT22;70686;52.494;13.420;2023-09-08T12:57:34;28.90;40.10
81212;DHT22;70686;52.494;13.420;2023-09-08T13:00:00;29.30;39.80
81212;DHT22;70686;52.494;13.420;2023-09-08T13:02:25;29.60;38.70
81212;DHT22;70686;52.494;13.420;2023-09-08T13:04:51;30.00;38.90
81212;DHT22;70686;52.494;13.420;2023-09-08T13:07:17;30.40;38.30
81212;DHT22;70686;52.494;13.420;2023-09-08T13:09:43;30.80;36.60
81212;DHT22;70686;52.494;13.420;2023-09-08T13:12:09;31.10;35.80
81212;DHT22;70686;52.494;13.420;2023-09-08T13:14:36;31.40;35.60
81212;DHT22;70686;52.494;13.420;2023-09-08T13:17:02;31.80;34.60
81212;DHT22;70686;52.494;13.420;2023-09-08T13:19:28;32.20;34.50
81212;DHT22;70686;52.494;13.420;2023-09-08T13:21:55;32.40;33.60
81212;DHT22;70686;52.494;13.420;2023-09-08T13:24:20;32.50;33.40
81212;DHT22;70686;52.494;13.420;2023-09-08T13:26:47;32.90;33.00
81212;DHT22;70686;52.494;13.420;2023-09-08T13:29:14;33.10;32.90
81212;DHT22;70686;52.494;13.420;2023-09-08T13:31:39;33.40;31.80
81212;DHT22;70686;52.494;13.420;2023-09-08T13:34:08;33.70;31.40
81212;DHT22;70686;52.494;13.420;2023-09-08T13:36:33;34.00;30.90
81212;DHT22;70686;52.494;13.420;2023-09-08T13:39:00;34.20;30.00
81212;DHT22;70686;52.494;13.420;2023-09-08T13:44:22;34.80;29.40
81212;DHT22;70686;52.494;13.420;2023-09-08T13:46:51;35.10;29.30
81212;DHT22;70686;52.494;13.420;2023-09-08T13:49:20;35.10;29.00
81212;DHT22;70686;52.494;13.420;2023-09-08T13:51:46;34.90;29.10
81212;DHT22;70686;52.494;13.420;2023-09-08T13:54:13;35.00;28.90
81212;DHT22;70686;52.494;13.420;2023-09-08T13:56:42;35.20;29.10
81212;DHT22;70686;52.494;13.420;2023-09-08T13:59:11;35.30;28.80
81212;DHT22;70686;52.494;13.420;2023-09-08T14:01:46;35.60;28.90
81212;DHT22;70686;52.494;13.420;2023-09-08T14:04:11;35.70;28.50
81212;DHT22;70686;52.494;13.420;2023-09-08T14:06:37;35.90;27.90
81212;DHT22;70686;52.494;13.420;2023-09-08T14:09:03;35.60;27.80
81212;DHT22;70686;52.494;13.420;2023-09-08T14:11:29;35.30;28.30
81212;DHT22;70686;52.494;13.420;2023-09-08T14:13:55;35.30;28.20
81212;DHT22;70686;52.494;13.420;2023-09-08T14:16:20;35.40;28.20
81212;DHT22;70686;52.494;13.420;2023-09-08T14:18:46;35.60;28.00
81212;DHT22;70686;52.494;13.420;2023-09-08T14:21:11;35.90;28.00
81212;DHT22;70686;52.494;13.420;2023-09-08T14:23:37;36.10;27.30
81212;DHT22;70686;52.494;13.420;2023-09-08T14:26:04;36.20;26.50
81212;DHT22;70686;52.494;13.420;2023-09-08T14:28:30;36.60;26.30
81212;DHT22;70686;52.494;13.420;2023-09-08T14:30:58;36.80;26.30
81212;DHT22;70686;52.494;13.420;2023-09-08T14:33:24;36.90;26.30
81212;DHT22;70686;52.494;13.420;2023-09-08T14:35:49;36.90;25.90
81212;DHT22;70686;52.494;13.420;2023-09-08T14:38:21;36.70;25.60
81212;DHT22;70686;52.494;13.420;2023-09-08T14:40:58;36.60;26.10
81212;DHT22;70686;52.494;13.420;2023-09-08T14:43:26;36.90;25.80
81212;DHT22;70686;52.494;13.420;2023-09-08T14:45:52;37.20;25.60
81212;DHT22;70686;52.494;13.420;2023-09-08T14:48:18;37.10;25.60
81212;DHT22;70686;52.494;13.420;2023-09-08T14:50:44;37.20;25.20
81212;DHT22;70686;52.494;13.420;2023-09-08T14:53:09;37.30;25.30
81212;DHT22;70686;52.494;13.420;2023-09-08T14:55:35;37.40;25.10
81212;DHT22;70686;52.494;13.420;2023-09-08T14:58:01;37.50;25.00
81212;DHT22;70686;52.494;13.420;2023-09-08T15:00:27;37.30;25.00
81212;DHT22;70686;52.494;13.420;2023-09-08T15:02:53;37.40;25.00
81212;DHT22;70686;52.494;13.420;2023-09-08T15:05:19;37.70;24.60
81212;DHT22;70686;52.494;13.420;2023-09-08T15:07:45;37.60;24.60
81212;DHT22;70686;52.494;13.420;2023-09-08T15:10:10;37.80;24.60
81212;DHT22;70686;52.494;13.420;2023-09-08T15:12:36;37.80;24.50
81212;DHT22;70686;52.494;13.420;2023-09-08T15:15:02;37.90;24.50
81212;DHT22;70686;52.494;13.420;2023-09-08T15:17:29;37.80;24.20
81212;DHT22;70686;52.494;13.420;2023-09-08T15:19:54;37.80;24.60
81212;DHT22;70686;52.494;13.420;2023-09-08T15:22:20;37.70;24.50
81212;DHT22;70686;52.494;13.420;2023-09-08T15:24:46;37.70;24.60
81212;DHT22;70686;52.494;13.420;2023-09-08T15:27:11;37.80;24.40
81212;DHT22;70686;52.494;13.420;2023-09-08T15:29:37;37.90;24.40
81212;DHT22;70686;52.494;13.420;2023-09-08T15:32:03;37.70;24.50
81212;DHT22;70686;52.494;13.420;2023-09-08T15:34:29;37.70;24.80
81212;DHT22;70686;52.494;13.420;2023-09-08T15:36:54;37.90;24.70
81212;DHT22;70686;52.494;13.420;2023-09-08T15:39:20;38.00;24.40
81212;DHT22;70686;52.494;13.420;2023-09-08T15:41:46;38.00;24.60
81212;DHT22;70686;52.494;13.420;2023-09-08T15:44:12;37.60;24.50
81212;DHT22;70686;52.494;13.420;2023-09-08T15:46:39;37.50;24.60
81212;DHT22;70686;52.494;13.420;2023-09-08T15:49:05;37.30;24.70
81212;DHT22;70686;52.494;13.420;2023-09-08T15:51:31;37.50;24.90
81212;DHT22;70686;52.494;13.420;2023-09-08T15:53:56;37.50;24.50
81212;DHT22;70686;52.494;13.420;2023-09-08T15:56:22;37.40;24.80
81212;DHT22;70686;52.494;13.420;2023-09-08T15:58:49;37.50;24.60
81212;DHT22;70686;52.494;13.420;2023-09-08T16:01:14;37.40;24.50
81212;DHT22;70686;52.494;13.420;2023-09-08T16:03:40;37.40;24.60
81212;DHT22;70686;52.494;13.420;2023-09-08T16:06:06;37.40;24.50
81212;DHT22;70686;52.494;13.420;2023-09-08T16:08:33;37.30;24.70
81212;DHT22;70686;52.494;13.420;2023-09-08T16:11:00;37.30;24.80
81212;DHT22;70686;52.494;13.420;2023-09-08T16:13:30;37.00;24.80